NCAR-RAP Real-Time Weather Data

Output produced by METARs form (19 June 2019  11:04 UTC)
found at http://weather.rap.ucar.edu/surface/
 
RJCB 191005Z 14008KT 9999 FEW005 BKN006 13/12 Q1007 RMK 1ST005 5ST006 A2975
 
RJCC 191030Z 16007KT 9999 FEW040 15/11 Q1007 RMK 1CU040 A2976
 
RJCH 191000Z VRB01KT 9999 FEW020 16/12 Q1007
 
RJCK 191045Z VRB01KT 2400 BCFG BR SCT001 BKN002 BKN003 13/13 Q1008 RMK 4ST001 6ST002 7ST003 A2979
 
RJCM 191000Z 19007KT 9999 FEW040 19/08 Q1006
 
RJCN 190900Z 03007KT 9999 FEW008 SCT020 BKN/// 14/13 Q1008
 
RJEC 191000Z 36005KT 9999 FEW050 SCT090 18/11 Q1006
 
RJSA 191000Z 02003KT 9999 FEW005 SCT025 BKN040 17/14 Q1007
 
RJSC 191000Z 23002KT 9999 FEW005 SCT020 BKN040 17/17 Q1007
 
RJSF 191000Z 16004KT 070V180 5000 -SHRA BR FEW005 SCT020 BKN030 18/17 Q1008
 
RJSI 191000Z VRB02KT 9999 FEW030 BKN090 18/15 Q1007
 
RJSK 191000Z 33003KT 9999 FEW007 SCT025 18/16 Q1007
 
RJSM 191000Z 13002KT 9999 -SHRA FEW005 SCT030 BKN050 17/14 Q1006
 
RJSN 191020Z 05005KT 5000 BR FEW004 SCT006 BKN025 18/18 Q1006 RMK 1ST004 4ST006 7CU025 A2972
 
RJSR 191000Z 16002KT 9999 FEW002 SCT040 BKN050 18/18 Q1007
 
RJSS 191000Z 00000KT 9999 FEW008 BKN060 BKN080 18/16 Q1006
 
RJSY 191000Z 08002KT 9999 FEW005 SCT030 BKN045 18/16 Q1006